sensor_id;sensor_type;location;lat;lon;timestamp;temperature;humidity
49855;DHT22;35752;52.164;21.244;2022-12-18T00:01:57;-4.20;99.90
49855;DHT22;35752;52.164;21.244;2022-12-18T00:04:25;-4.20;99.90
49855;DHT22;35752;52.164;21.244;2022-12-18T00:06:51;-4.20;99.90
49855;DHT22;35752;52.164;21.244;2022-12-18T00:09:17;-4.20;99.90
49855;DHT22;35752;52.164;21.244;2022-12-18T00:11:43;-4.30;99.90
49855;DHT22;35752;52.164;21.244;2022-12-18T00:14:11;-4.30;99.90
49855;DHT22;35752;52.164;21.244;2022-12-18T00:16:37;-4.20;99.90
49855;DHT22;35752;52.164;21.244;2022-12-18T00:19:04;-4.20;99.90
49855;DHT22;35752;52.164;21.244;2022-12-18T00:21:31;-4.30;99.90
49855;DHT22;35752;52.164;21.244;2022-12-18T00:23:58;-4.30;99.90
49855;DHT22;35752;52.164;21.244;2022-12-18T00:26:32;-4.20;99.90
49855;DHT22;35752;52.164;21.244;2022-12-18T00:29:03;-4.20;99.90
49855;DHT22;35752;52.164;21.244;2022-12-18T00:31:29;-4.30;99.90
49855;DHT22;35752;52.164;21.244;2022-12-18T00:33:56;-4.30;99.90
49855;DHT22;35752;52.164;21.244;2022-12-18T00:36:25;-4.20;99.90
49855;DHT22;35752;52.164;21.244;2022-12-18T00:38:52;-4.20;99.90
49855;DHT22;35752;52.164;21.244;2022-12-18T00:41:18;-4.20;99.90
49855;DHT22;35752;52.164;21.244;2022-12-18T00:44:04;-4.20;99.90
49855;DHT22;35752;52.164;21.244;2022-12-18T00:46:30;-4.10;99.90
49855;DHT22;35752;52.164;21.244;2022-12-18T00:48:55;-4.10;99.90
49855;DHT22;35752;52.164;21.244;2022-12-18T00:51:21;-4.10;99.90
49855;DHT22;35752;52.164;21.244;2022-12-18T00:53:47;-4.10;99.90
49855;DHT22;35752;52.164;21.244;2022-12-18T00:56:13;-4.10;99.90
49855;DHT22;35752;52.164;21.244;2022-12-18T00:58:39;-4.10;99.90
49855;DHT22;35752;52.164;21.244;2022-12-18T01:01:05;-4.10;99.90
49855;DHT22;35752;52.164;21.244;2022-12-18T01:03:31;-4.20;99.90
49855;DHT22;35752;52.164;21.244;2022-12-18T01:05:57;-4.10;99.90
49855;DHT22;35752;52.164;21.244;2022-12-18T01:08:23;-4.10;99.90
49855;DHT22;35752;52.164;21.244;2022-12-18T01:10:49;-4.00;99.90
49855;DHT22;35752;52.164;21.244;2022-12-18T01:13:14;-4.10;99.90
49855;DHT22;35752;52.164;21.244;2022-12-18T01:15:40;-4.00;99.90
49855;DHT22;35752;52.164;21.244;2022-12-18T01:18:06;-4.10;99.90
49855;DHT22;35752;52.164;21.244;2022-12-18T01:20:32;-4.10;99.90
49855;DHT22;35752;52.164;21.244;2022-12-18T01:22:58;-4.10;99.90
49855;DHT22;35752;52.164;21.244;2022-12-18T01:25:24;-4.00;99.90
49855;DHT22;35752;52.164;21.244;2022-12-18T01:27:49;-4.10;99.90
49855;DHT22;35752;52.164;21.244;2022-12-18T01:30:15;-4.00;99.90
49855;DHT22;35752;52.164;21.244;2022-12-18T01:32:41;-4.00;99.90
49855;DHT22;35752;52.164;21.244;2022-12-18T01:35:07;-4.00;99.90
49855;DHT22;35752;52.164;21.244;2022-12-18T01:37:32;-4.00;99.90
49855;DHT22;35752;52.164;21.244;2022-12-18T01:39:58;-4.00;99.90
49855;DHT22;35752;52.164;21.244;2022-12-18T01:42:24;-4.00;99.90
49855;DHT22;35752;52.164;21.244;2022-12-18T01:50:04;-4.20;99.90
49855;DHT22;35752;52.164;21.244;2022-12-18T01:52:32;-4.20;99.90
49855;DHT22;35752;52.164;21.244;2022-12-18T01:55:00;-4.20;99.90
49855;DHT22;35752;52.164;21.244;2022-12-18T01:57:28;-4.10;99.90
49855;DHT22;35752;52.164;21.244;2022-12-18T01:59:59;-4.20;99.90
49855;DHT22;35752;52.164;21.244;2022-12-18T02:02:28;-4.20;99.90
49855;DHT22;35752;52.164;21.244;2022-12-18T02:04:55;-4.20;99.90
49855;DHT22;35752;52.164;21.244;2022-12-18T02:10:31;-4.20;99.90
49855;DHT22;35752;52.164;21.244;2022-12-18T02:15:36;-4.20;99.90
49855;DHT22;35752;52.164;21.244;2022-12-18T02:18:14;-4.20;99.90
49855;DHT22;35752;52.164;21.244;2022-12-18T02:26:38;-4.10;99.90
49855;DHT22;35752;52.164;21.244;2022-12-18T02:29:16;-4.20;99.90
49855;DHT22;35752;52.164;21.244;2022-12-18T02:31:47;-4.10;99.90
49855;DHT22;35752;52.164;21.244;2022-12-18T02:34:16;-4.00;99.90
49855;DHT22;35752;52.164;21.244;2022-12-18T02:36:43;-4.00;99.90
49855;DHT22;35752;52.164;21.244;2022-12-18T02:39:11;-4.00;99.90
49855;DHT22;35752;52.164;21.244;2022-12-18T02:41:38;-4.10;99.90
49855;DHT22;35752;52.164;21.244;2022-12-18T02:44:11;-4.00;99.90
49855;DHT22;35752;52.164;21.244;2022-12-18T02:46:50;-4.00;99.90
49855;DHT22;35752;52.164;21.244;2022-12-18T02:52:32;-4.00;99.90
49855;DHT22;35752;52.164;21.244;2022-12-18T02:55:22;-3.90;99.90
49855;DHT22;35752;52.164;21.244;2022-12-18T03:00:31;-3.90;99.90
49855;DHT22;35752;52.164;21.244;2022-12-18T03:03:19;-3.90;99.90
49855;DHT22;35752;52.164;21.244;2022-12-18T03:06:01;-4.00;99.90
49855;DHT22;35752;52.164;21.244;2022-12-18T03:08:29;-4.00;99.90
49855;DHT22;35752;52.164;21.244;2022-12-18T03:11:00;-4.10;99.90
49855;DHT22;35752;52.164;21.244;2022-12-18T03:16:28;-4.20;99.90
49855;DHT22;35752;52.164;21.244;2022-12-18T03:18:59;-4.20;99.90
49855;DHT22;35752;52.164;21.244;2022-12-18T03:21:27;-4.20;99.90
49855;DHT22;35752;52.164;21.244;2022-12-18T03:23:53;-4.20;99.90
49855;DHT22;35752;52.164;21.244;2022-12-18T03:26:25;-4.20;99.90
49855;DHT22;35752;52.164;21.244;2022-12-18T03:29:03;-4.30;99.90
49855;DHT22;35752;52.164;21.244;2022-12-18T03:31:30;-4.20;99.90
49855;DHT22;35752;52.164;21.244;2022-12-18T03:34:03;-4.30;99.90
49855;DHT22;35752;52.164;21.244;2022-12-18T03:36:31;-4.30;99.90
49855;DHT22;35752;52.164;21.244;2022-12-18T03:38:57;-4.30;99.90
49855;DHT22;35752;52.164;21.244;2022-12-18T03:41:54;-4.30;99.90
49855;DHT22;35752;52.164;21.244;2022-12-18T03:44:29;-4.30;99.90
49855;DHT22;35752;52.164;21.244;2022-12-18T03:47:27;-4.40;99.90
49855;DHT22;35752;52.164;21.244;2022-12-18T03:50:03;-4.40;99.90
49855;DHT22;35752;52.164;21.244;2022-12-18T03:55:11;-4.40;99.90
49855;DHT22;35752;52.164;21.244;2022-12-18T03:57:38;-4.50;99.90
49855;DHT22;35752;52.164;21.244;2022-12-18T04:00:10;-4.50;99.90
49855;DHT22;35752;52.164;21.244;2022-12-18T04:02:38;-4.50;99.90
49855;DHT22;35752;52.164;21.244;2022-12-18T04:05:07;-4.40;99.90
49855;DHT22;35752;52.164;21.244;2022-12-18T04:07:34;-4.50;99.90
49855;DHT22;35752;52.164;21.244;2022-12-18T04:10:02;-4.50;99.90
49855;DHT22;35752;52.164;21.244;2022-12-18T04:12:29;-4.50;99.90
49855;DHT22;35752;52.164;21.244;2022-12-18T04:14:55;-4.50;99.90
49855;DHT22;35752;52.164;21.244;2022-12-18T04:17:21;-4.50;99.90
49855;DHT22;35752;52.164;21.244;2022-12-18T04:19:47;-4.50;99.90
49855;DHT22;35752;52.164;21.244;2022-12-18T04:22:13;-4.60;99.90
49855;DHT22;35752;52.164;21.244;2022-12-18T04:24:39;-4.50;99.90
49855;DHT22;35752;52.164;21.244;2022-12-18T04:27:05;-4.50;99.90
49855;DHT22;35752;52.164;21.244;2022-12-18T04:29:30;-4.50;99.90
49855;DHT22;35752;52.164;21.244;2022-12-18T04:31:56;-4.50;99.90
49855;DHT22;35752;52.164;21.244;2022-12-18T04:34:22;-4.50;99.90
49855;DHT22;35752;52.164;21.244;2022-12-18T04:36:47;-4.40;99.90
49855;DHT22;35752;52.164;21.244;2022-12-18T04:39:14;-4.50;99.90
49855;DHT22;35752;52.164;21.244;2022-12-18T04:41:39;-4.50;99.90
49855;DHT22;35752;52.164;21.244;2022-12-18T04:44:06;-4.50;99.90
49855;DHT22;35752;52.164;21.244;2022-12-18T04:46:32;-4.50;99.90
49855;DHT22;35752;52.164;21.244;2022-12-18T04:48:58;-4.50;99.90
49855;DHT22;35752;52.164;21.244;2022-12-18T04:51:23;-4.50;99.90
49855;DHT22;35752;52.164;21.244;2022-12-18T04:53:49;-4.50;99.90
49855;DHT22;35752;52.164;21.244;2022-12-18T04:56:15;-4.50;99.90
49855;DHT22;35752;52.164;21.244;2022-12-18T04:58:43;-4.50;99.90
49855;DHT22;35752;52.164;21.244;2022-12-18T05:01:10;-4.50;99.90
49855;DHT22;35752;52.164;21.244;2022-12-18T05:03:36;-4.50;99.90
49855;DHT22;35752;52.164;21.244;2022-12-18T05:06:03;-4.50;99.90
49855;DHT22;35752;52.164;21.244;2022-12-18T05:08:29;-4.50;99.90
49855;DHT22;35752;52.164;21.244;2022-12-18T05:13:30;-4.60;99.90
49855;DHT22;35752;52.164;21.244;2022-12-18T05:15:56;-4.60;99.90
49855;DHT22;35752;52.164;21.244;2022-12-18T05:18:25;-4.70;99.90
49855;DHT22;35752;52.164;21.244;2022-12-18T05:20:52;-4.60;99.90
49855;DHT22;35752;52.164;21.244;2022-12-18T05:23:18;-4.60;99.90
49855;DHT22;35752;52.164;21.244;2022-12-18T05:25:59;-4.70;99.90
49855;DHT22;35752;52.164;21.244;2022-12-18T05:28:27;-4.60;99.90
49855;DHT22;35752;52.164;21.244;2022-12-18T05:30:56;-4.60;99.90
49855;DHT22;35752;52.164;21.244;2022-12-18T05:33:23;-4.60;99.90
49855;DHT22;35752;52.164;21.244;2022-12-18T05:35:57;-4.60;99.90
49855;DHT22;35752;52.164;21.244;2022-12-18T05:38:25;-4.60;99.90
49855;DHT22;35752;52.164;21.244;2022-12-18T05:40:52;-4.60;99.90
49855;DHT22;35752;52.164;21.244;2022-12-18T05:43:19;-4.60;99.90
49855;DHT22;35752;52.164;21.244;2022-12-18T05:45:47;-4.60;99.90
49855;DHT22;35752;52.164;21.244;2022-12-18T05:48:13;-4.70;99.90
49855;DHT22;35752;52.164;21.244;2022-12-18T05:50:41;-4.70;99.90
49855;DHT22;35752;52.164;21.244;2022-12-18T05:53:07;-4.70;99.90
49855;DHT22;35752;52.164;21.244;2022-12-18T05:55:37;-4.70;99.90
49855;DHT22;35752;52.164;21.244;2022-12-18T05:58:05;-4.70;99.90
49855;DHT22;35752;52.164;21.244;2022-12-18T06:00:35;-4.80;99.90
49855;DHT22;35752;52.164;21.244;2022-12-18T06:03:01;-4.80;99.90
49855;DHT22;35752;52.164;21.244;2022-12-18T06:05:27;-4.80;99.90
49855;DHT22;35752;52.164;21.244;2022-12-18T06:07:53;-4.80;99.90
49855;DHT22;35752;52.164;21.244;2022-12-18T06:10:19;-4.90;99.90
49855;DHT22;35752;52.164;21.244;2022-12-18T06:12:44;-4.80;99.90
49855;DHT22;35752;52.164;21.244;2022-12-18T06:15:10;-4.90;99.90
49855;DHT22;35752;52.164;21.244;2022-12-18T06:17:36;-4.90;99.90
49855;DHT22;35752;52.164;21.244;2022-12-18T06:20:03;-4.80;99.90
49855;DHT22;35752;52.164;21.244;2022-12-18T06:22:31;-4.90;99.90
49855;DHT22;35752;52.164;21.244;2022-12-18T06:24:57;-4.90;99.90
49855;DHT22;35752;52.164;21.244;2022-12-18T06:27:23;-4.90;99.90
49855;DHT22;35752;52.164;21.244;2022-12-18T06:29:48;-5.00;99.90
49855;DHT22;35752;52.164;21.244;2022-12-18T06:32:14;-5.00;99.90
49855;DHT22;35752;52.164;21.244;2022-12-18T06:34:39;-4.90;99.90
49855;DHT22;35752;52.164;21.244;2022-12-18T06:37:05;-4.90;99.90
49855;DHT22;35752;52.164;21.244;2022-12-18T06:39:31;-4.90;99.90
49855;DHT22;35752;52.164;21.244;2022-12-18T06:41:56;-5.00;99.90
49855;DHT22;35752;52.164;21.244;2022-12-18T06:44:22;-4.80;99.90
49855;DHT22;35752;52.164;21.244;2022-12-18T06:46:48;-4.90;99.90
49855;DHT22;35752;52.164;21.244;2022-12-18T06:49:13;-4.90;99.90
49855;DHT22;35752;52.164;21.244;2022-12-18T06:51:39;-4.80;99.90
49855;DHT22;35752;52.164;21.244;2022-12-18T06:54:05;-4.80;99.90
49855;DHT22;35752;52.164;21.244;2022-12-18T06:56:31;-4.90;99.90
49855;DHT22;35752;52.164;21.244;2022-12-18T06:58:56;-4.90;99.90
49855;DHT22;35752;52.164;21.244;2022-12-18T07:01:22;-4.80;99.90
49855;DHT22;35752;52.164;21.244;2022-12-18T07:03:52;-4.80;99.90
49855;DHT22;35752;52.164;21.244;2022-12-18T07:06:20;-4.80;99.90
49855;DHT22;35752;52.164;21.244;2022-12-18T07:08:48;-4.70;99.90
49855;DHT22;35752;52.164;21.244;2022-12-18T07:11:14;-4.80;99.90
49855;DHT22;35752;52.164;21.244;2022-12-18T07:13:40;-4.80;99.90
49855;DHT22;35752;52.164;21.244;2022-12-18T07:16:16;-4.70;99.90
49855;DHT22;35752;52.164;21.244;2022-12-18T07:18:42;-4.60;99.90
49855;DHT22;35752;52.164;21.244;2022-12-18T07:21:10;-4.70;99.90
49855;DHT22;35752;52.164;21.244;2022-12-18T07:23:36;-4.70;99.90
49855;DHT22;35752;52.164;21.244;2022-12-18T07:26:10;-4.70;99.90
49855;DHT22;35752;52.164;21.244;2022-12-18T07:28:36;-4.70;99.90
49855;DHT22;35752;52.164;21.244;2022-12-18T07:31:04;-4.60;99.90
49855;DHT22;35752;52.164;21.244;2022-12-18T07:33:30;-4.60;99.90
49855;DHT22;35752;52.164;21.244;2022-12-18T07:35:55;-4.50;99.90
49855;DHT22;35752;52.164;21.244;2022-12-18T07:38:21;-4.50;99.90
49855;DHT22;35752;52.164;21.244;2022-12-18T07:40:47;-4.60;99.90
49855;DHT22;35752;52.164;21.244;2022-12-18T07:43:12;-4.60;99.90
49855;DHT22;35752;52.164;21.244;2022-12-18T07:45:38;-4.70;99.90
49855;DHT22;35752;52.164;21.244;2022-12-18T07:48:04;-4.70;99.90
49855;DHT22;35752;52.164;21.244;2022-12-18T07:50:29;-4.70;99.90
49855;DHT22;35752;52.164;21.244;2022-12-18T07:52:55;-4.50;99.90
49855;DHT22;35752;52.164;21.244;2022-12-18T07:55:21;-4.50;99.90
49855;DHT22;35752;52.164;21.244;2022-12-18T07:57:46;-4.60;99.90
49855;DHT22;35752;52.164;21.244;2022-12-18T08:00:12;-4.50;99.90
49855;DHT22;35752;52.164;21.244;2022-12-18T08:02:38;-4.50;99.90
49855;DHT22;35752;52.164;21.244;2022-12-18T08:05:04;-4.40;99.90
49855;DHT22;35752;52.164;21.244;2022-12-18T08:07:30;-4.40;99.90
49855;DHT22;35752;52.164;21.244;2022-12-18T08:09:55;-4.40;99.90
49855;DHT22;35752;52.164;21.244;2022-12-18T08:12:21;-4.30;99.90
49855;DHT22;35752;52.164;21.244;2022-12-18T08:14:46;-4.20;99.90
49855;DHT22;35752;52.164;21.244;2022-12-18T08:17:12;-4.30;99.90
49855;DHT22;35752;52.164;21.244;2022-12-18T08:19:38;-4.30;99.90
49855;DHT22;35752;52.164;21.244;2022-12-18T08:22:03;-4.30;99.90
49855;DHT22;35752;52.164;21.244;2022-12-18T08:24:29;-4.30;99.90
49855;DHT22;35752;52.164;21.244;2022-12-18T08:26:54;-4.20;99.90
49855;DHT22;35752;52.164;21.244;2022-12-18T08:29:22;-4.20;99.90
49855;DHT22;35752;52.164;21.244;2022-12-18T08:31:48;-4.20;99.90
49855;DHT22;35752;52.164;21.244;2022-12-18T08:34:13;-4.20;99.90
49855;DHT22;35752;52.164;21.244;2022-12-18T08:36:40;-4.30;99.90
49855;DHT22;35752;52.164;21.244;2022-12-18T08:39:05;-4.10;99.90
49855;DHT22;35752;52.164;21.244;2022-12-18T08:41:31;-4.00;99.90
49855;DHT22;35752;52.164;21.244;2022-12-18T08:43:56;-3.90;99.90
49855;DHT22;35752;52.164;21.244;2022-12-18T08:46:42;-3.90;99.90
49855;DHT22;35752;52.164;21.244;2022-12-18T08:49:09;-3.90;99.90
49855;DHT22;35752;52.164;21.244;2022-12-18T08:51:35;-3.80;99.90
49855;DHT22;35752;52.164;21.244;2022-12-18T08:54:02;-3.70;99.90
49855;DHT22;35752;52.164;21.244;2022-12-18T08:56:28;-3.70;99.90
49855;DHT22;35752;52.164;21.244;2022-12-18T08:58:55;-3.70;99.90
49855;DHT22;35752;52.164;21.244;2022-12-18T09:01:21;-3.80;99.90
49855;DHT22;35752;52.164;21.244;2022-12-18T09:03:48;-3.80;99.90
49855;DHT22;35752;52.164;21.244;2022-12-18T09:06:19;-3.80;99.90
49855;DHT22;35752;52.164;21.244;2022-12-18T09:08:45;-3.80;99.90
49855;DHT22;35752;52.164;21.244;2022-12-18T09:11:37;-3.60;99.90
49855;DHT22;35752;52.164;21.244;2022-12-18T09:14:03;-3.70;99.90
49855;DHT22;35752;52.164;21.244;2022-12-18T09:16:29;-3.60;99.90
49855;DHT22;35752;52.164;21.244;2022-12-18T09:18:56;-3.70;99.90
49855;DHT22;35752;52.164;21.244;2022-12-18T09:21:26;-3.70;99.90
49855;DHT22;35752;52.164;21.244;2022-12-18T09:23:53;-3.50;99.90
49855;DHT22;35752;52.164;21.244;2022-12-18T09:26:20;-3.60;99.90
49855;DHT22;35752;52.164;21.244;2022-12-18T09:28:46;-3.40;99.90
49855;DHT22;35752;52.164;21.244;2022-12-18T09:31:14;-3.30;99.90
49855;DHT22;35752;52.164;21.244;2022-12-18T09:33:41;-3.30;99.90
49855;DHT22;35752;52.164;21.244;2022-12-18T09:36:09;-3.10;99.90
49855;DHT22;35752;52.164;21.244;2022-12-18T09:38:35;-3.00;99.90
49855;DHT22;35752;52.164;21.244;2022-12-18T09:41:28;-3.10;99.90
49855;DHT22;35752;52.164;21.244;2022-12-18T09:44:00;-3.00;99.90
49855;DHT22;35752;52.164;21.244;2022-12-18T09:46:35;-2.90;99.90
49855;DHT22;35752;52.164;21.244;2022-12-18T09:49:07;-2.90;99.90
49855;DHT22;35752;52.164;21.244;2022-12-18T09:51:46;-2.90;99.90
49855;DHT22;35752;52.164;21.244;2022-12-18T09:54:32;-2.80;99.90
49855;DHT22;35752;52.164;21.244;2022-12-18T09:56:58;-2.70;99.90
49855;DHT22;35752;52.164;21.244;2022-12-18T09:59:48;-2.70;99.90
49855;DHT22;35752;52.164;21.244;2022-12-18T10:02:30;-2.50;99.90
49855;DHT22;35752;52.164;21.244;2022-12-18T10:05:06;-2.40;99.90
49855;DHT22;35752;52.164;21.244;2022-12-18T10:07:36;-2.60;99.90
49855;DHT22;35752;52.164;21.244;2022-12-18T10:10:18;-2.60;99.90
49855;DHT22;35752;52.164;21.244;2022-12-18T10:21:13;-2.50;99.90
49855;DHT22;35752;52.164;21.244;2022-12-18T10:24:24;-2.40;99.90
49855;DHT22;35752;52.164;21.244;2022-12-18T10:26:58;-2.70;99.90
49855;DHT22;35752;52.164;21.244;2022-12-18T10:29:25;-2.50;99.90
49855;DHT22;35752;52.164;21.244;2022-12-18T10:31:51;-2.60;99.90
49855;DHT22;35752;52.164;21.244;2022-12-18T10:34:16;-2.50;99.90
49855;DHT22;35752;52.164;21.244;2022-12-18T10:36:42;-2.50;99.90
49855;DHT22;35752;52.164;21.244;2022-12-18T10:39:34;-2.50;99.90
49855;DHT22;35752;52.164;21.244;2022-12-18T10:42:14;-2.50;99.90
49855;DHT22;35752;52.164;21.244;2022-12-18T10:44:41;-2.40;99.90
49855;DHT22;35752;52.164;21.244;2022-12-18T10:47:12;-2.30;99.90
49855;DHT22;35752;52.164;21.244;2022-12-18T10:49:47;-2.40;99.90
49855;DHT22;35752;52.164;21.244;2022-12-18T10:52:25;-2.40;99.90
49855;DHT22;35752;52.164;21.244;2022-12-18T10:54:57;-2.40;99.90
49855;DHT22;35752;52.164;21.244;2022-12-18T10:57:36;-2.40;99.90
49855;DHT22;35752;52.164;21.244;2022-12-18T11:00:25;-2.40;99.90
49855;DHT22;35752;52.164;21.244;2022-12-18T11:02:53;-2.40;99.90
49855;DHT22;35752;52.164;21.244;2022-12-18T11:05:33;-2.50;99.90
49855;DHT22;35752;52.164;21.244;2022-12-18T11:08:00;-2.40;99.90
49855;DHT22;35752;52.164;21.244;2022-12-18T11:10:46;-2.30;99.90
49855;DHT22;35752;52.164;21.244;2022-12-18T11:13:21;-2.20;99.90
49855;DHT22;35752;52.164;21.244;2022-12-18T11:15:48;-2.10;99.90
49855;DHT22;35752;52.164;21.244;2022-12-18T11:18:34;-2.10;99.90
49855;DHT22;35752;52.164;21.244;2022-12-18T11:21:11;-2.20;99.90
49855;DHT22;35752;52.164;21.244;2022-12-18T11:23:50;-2.10;99.90
49855;DHT22;35752;52.164;21.244;2022-12-18T11:26:16;-2.10;99.90
49855;DHT22;35752;52.164;21.244;2022-12-18T11:29:10;-2.00;99.90
49855;DHT22;35752;52.164;21.244;2022-12-18T11:31:36;-2.00;99.90
49855;DHT22;35752;52.164;21.244;2022-12-18T11:34:12;-2.10;99.90
49855;DHT22;35752;52.164;21.244;2022-12-18T11:36:45;-2.00;99.90
49855;DHT22;35752;52.164;21.244;2022-12-18T11:41:57;-1.90;99.90
49855;DHT22;35752;52.164;21.244;2022-12-18T11:49:38;-1.70;99.90
49855;DHT22;35752;52.164;21.244;2022-12-18T11:52:19;-1.70;99.90
49855;DHT22;35752;52.164;21.244;2022-12-18T11:54:45;-1.60;99.90
49855;DHT22;35752;52.164;21.244;2022-12-18T11:57:35;-1.80;99.90
49855;DHT22;35752;52.164;21.244;2022-12-18T12:17:03;-1.80;99.90
49855;DHT22;35752;52.164;21.244;2022-12-18T12:22:38;-1.90;99.90
49855;DHT22;35752;52.164;21.244;2022-12-18T12:39:17;-1.50;99.90
49855;DHT22;35752;52.164;21.244;2022-12-18T12:41:45;-1.50;99.90
49855;DHT22;35752;52.164;21.244;2022-12-18T12:44:33;-1.40;99.90
49855;DHT22;35752;52.164;21.244;2022-12-18T12:47:09;-1.50;99.90
49855;DHT22;35752;52.164;21.244;2022-12-18T12:49:37;-1.50;99.90
49855;DHT22;35752;52.164;21.244;2022-12-18T12:52:54;-1.50;99.90
49855;DHT22;35752;52.164;21.244;2022-12-18T12:55:26;-1.60;99.90
49855;DHT22;35752;52.164;21.244;2022-12-18T13:04:12;-1.90;99.90
49855;DHT22;35752;52.164;21.244;2022-12-18T13:06:45;-2.10;99.90
49855;DHT22;35752;52.164;21.244;2022-12-18T13:09:13;-2.20;99.90
49855;DHT22;35752;52.164;21.244;2022-12-18T13:11:44;-2.10;99.90
49855;DHT22;35752;52.164;21.244;2022-12-18T13:14:40;-2.00;99.90
49855;DHT22;35752;52.164;21.244;2022-12-18T13:19:51;-2.00;99.90
49855;DHT22;35752;52.164;21.244;2022-12-18T13:22:59;-1.90;99.90
49855;DHT22;35752;52.164;21.244;2022-12-18T13:25:44;-2.00;99.90
49855;DHT22;35752;52.164;21.244;2022-12-18T13:28:15;-2.00;99.90
49855;DHT22;35752;52.164;21.244;2022-12-18T13:30:49;-2.00;99.90
49855;DHT22;35752;52.164;21.244;2022-12-18T13:48:57;-2.10;99.90
49855;DHT22;35752;52.164;21.244;2022-12-18T13:51:25;-2.10;99.90
49855;DHT22;35752;52.164;21.244;2022-12-18T13:53:52;-2.10;99.90
49855;DHT22;35752;52.164;21.244;2022-12-18T13:56:23;-2.10;99.90
49855;DHT22;35752;52.164;21.244;2022-12-18T13:59:21;-2.20;99.90
49855;DHT22;35752;52.164;21.244;2022-12-18T14:02:14;-2.40;99.90
49855;DHT22;35752;52.164;21.244;2022-12-18T14:04:40;-2.30;99.90
49855;DHT22;35752;52.164;21.244;2022-12-18T14:07:16;-2.30;99.90
49855;DHT22;35752;52.164;21.244;2022-12-18T14:09:45;-2.40;99.90
49855;DHT22;35752;52.164;21.244;2022-12-18T14:12:23;-2.40;99.90
49855;DHT22;35752;52.164;21.244;2022-12-18T14:20:42;-2.40;99.90
49855;DHT22;35752;52.164;21.244;2022-12-18T14:28:47;-2.30;99.90
49855;DHT22;35752;52.164;21.244;2022-12-18T14:31:27;-2.30;99.90
49855;DHT22;35752;52.164;21.244;2022-12-18T14:33:53;-2.20;99.90
49855;DHT22;35752;52.164;21.244;2022-12-18T14:36:21;-2.30;99.90
49855;DHT22;35752;52.164;21.244;2022-12-18T14:38:50;-2.40;99.90
49855;DHT22;35752;52.164;21.244;2022-12-18T14:41:17;-2.40;99.90
49855;DHT22;35752;52.164;21.244;2022-12-18T14:43:46;-2.50;99.90
49855;DHT22;35752;52.164;21.244;2022-12-18T14:46:35;-2.50;99.90
49855;DHT22;35752;52.164;21.244;2022-12-18T14:49:20;-2.30;99.90
49855;DHT22;35752;52.164;21.244;2022-12-18T14:51:52;-2.40;99.90
49855;DHT22;35752;52.164;21.244;2022-12-18T14:54:19;-2.30;99.90
49855;DHT22;35752;52.164;21.244;2022-12-18T14:56:48;-2.30;99.90
49855;DHT22;35752;52.164;21.244;2022-12-18T14:59:22;-2.30;99.90
49855;DHT22;35752;52.164;21.244;2022-12-18T15:02:16;-2.40;99.90
49855;DHT22;35752;52.164;21.244;2022-12-18T15:04:44;-2.30;99.90
49855;DHT22;35752;52.164;21.244;2022-12-18T15:09:44;-2.20;99.90
49855;DHT22;35752;52.164;21.244;2022-12-18T15:12:36;-2.30;99.90
49855;DHT22;35752;52.164;21.244;2022-12-18T15:15:03;-2.20;99.90
49855;DHT22;35752;52.164;21.244;2022-12-18T15:17:29;-2.20;99.90
49855;DHT22;35752;52.164;21.244;2022-12-18T15:20:01;-2.20;99.90
49855;DHT22;35752;52.164;21.244;2022-12-18T15:22:30;-2.30;99.90
49855;DHT22;35752;52.164;21.244;2022-12-18T15:24:58;-2.20;99.90
49855;DHT22;35752;52.164;21.244;2022-12-18T15:27:26;-2.20;99.90
49855;DHT22;35752;52.164;21.244;2022-12-18T15:32:36;-2.30;99.90
49855;DHT22;35752;52.164;21.244;2022-12-18T15:37:29;-2.40;99.90
49855;DHT22;35752;52.164;21.244;2022-12-18T15:39:55;-2.40;99.90
49855;DHT22;35752;52.164;21.244;2022-12-18T15:42:21;-2.50;99.90
49855;DHT22;35752;52.164;21.244;2022-12-18T15:45:05;-2.50;99.90
49855;DHT22;35752;52.164;21.244;2022-12-18T15:47:31;-2.40;99.90
49855;DHT22;35752;52.164;21.244;2022-12-18T15:49:58;-2.40;99.90
49855;DHT22;35752;52.164;21.244;2022-12-18T15:52:23;-2.30;99.90
49855;DHT22;35752;52.164;21.244;2022-12-18T15:54:51;-2.30;99.90
49855;DHT22;35752;52.164;21.244;2022-12-18T15:57:35;-2.30;99.90
49855;DHT22;35752;52.164;21.244;2022-12-18T16:00:01;-2.40;99.90
49855;DHT22;35752;52.164;21.244;2022-12-18T16:02:27;-2.40;99.90
49855;DHT22;35752;52.164;21.244;2022-12-18T16:04:53;-2.40;99.90
49855;DHT22;35752;52.164;21.244;2022-12-18T16:07:19;-2.40;99.90
49855;DHT22;35752;52.164;21.244;2022-12-18T16:09:45;-2.40;99.90
49855;DHT22;35752;52.164;21.244;2022-12-18T16:12:20;-2.40;99.90
49855;DHT22;35752;52.164;21.244;2022-12-18T16:14:46;-2.30;99.90
49855;DHT22;35752;52.164;21.244;2022-12-18T16:17:13;-2.40;99.90
49855;DHT22;35752;52.164;21.244;2022-12-18T16:19:39;-2.30;99.90
49855;DHT22;35752;52.164;21.244;2022-12-18T16:22:05;-2.30;99.90
49855;DHT22;35752;52.164;21.244;2022-12-18T16:24:32;-2.30;99.90
49855;DHT22;35752;52.164;21.244;2022-12-18T16:27:00;-2.40;99.90
49855;DHT22;35752;52.164;21.244;2022-12-18T16:29:27;-2.40;99.90
49855;DHT22;35752;52.164;21.244;2022-12-18T16:31:57;-2.40;99.90
49855;DHT22;35752;52.164;21.244;2022-12-18T16:34:26;-2.50;99.90
49855;DHT22;35752;52.164;21.244;2022-12-18T16:36:57;-2.60;99.90
49855;DHT22;35752;52.164;21.244;2022-12-18T16:39:24;-2.60;99.90
49855;DHT22;35752;52.164;21.244;2022-12-18T16:41:50;-2.50;99.90
49855;DHT22;35752;52.164;21.244;2022-12-18T16:44:15;-2.40;99.90
49855;DHT22;35752;52.164;21.244;2022-12-18T16:46:42;-2.40;99.90
49855;DHT22;35752;52.164;21.244;2022-12-18T16:49:17;-2.50;99.90
49855;DHT22;35752;52.164;21.244;2022-12-18T16:51:45;-2.40;99.90
49855;DHT22;35752;52.164;21.244;2022-12-18T16:54:12;-2.50;99.90
49855;DHT22;35752;52.164;21.244;2022-12-18T16:56:38;-2.60;99.90
49855;DHT22;35752;52.164;21.244;2022-12-18T16:59:04;-2.60;99.90
49855;DHT22;35752;52.164;21.244;2022-12-18T17:01:31;-2.60;99.90
49855;DHT22;35752;52.164;21.244;2022-12-18T17:03:59;-2.60;99.90
49855;DHT22;35752;52.164;21.244;2022-12-18T17:06:26;-2.60;99.90
49855;DHT22;35752;52.164;21.244;2022-12-18T17:08:56;-2.70;99.90
49855;DHT22;35752;52.164;21.244;2022-12-18T17:11:23;-2.80;99.90
49855;DHT22;35752;52.164;21.244;2022-12-18T17:13:50;-2.70;99.90
49855;DHT22;35752;52.164;21.244;2022-12-18T17:16:15;-2.70;99.90
49855;DHT22;35752;52.164;21.244;2022-12-18T17:18:42;-2.80;99.90
49855;DHT22;35752;52.164;21.244;2022-12-18T17:21:09;-2.90;99.90
49855;DHT22;35752;52.164;21.244;2022-12-18T17:23:35;-2.80;99.90
49855;DHT22;35752;52.164;21.244;2022-12-18T17:26:02;-2.90;99.90
49855;DHT22;35752;52.164;21.244;2022-12-18T17:28:29;-2.80;99.90
49855;DHT22;35752;52.164;21.244;2022-12-18T17:30:55;-2.90;99.90
49855;DHT22;35752;52.164;21.244;2022-12-18T17:33:22;-2.90;99.90
49855;DHT22;35752;52.164;21.244;2022-12-18T17:35:48;-2.90;99.90
49855;DHT22;35752;52.164;21.244;2022-12-18T17:38:14;-2.90;99.90